createdAt,value
2019-05-22T00:00:31.936Z,48.47
2019-05-22T00:03:04.599Z,46.27
2019-05-22T00:05:35.974Z,44.70
2019-05-22T00:08:09.738Z,45.53
2019-05-22T00:10:44.386Z,44.83
2019-05-22T00:13:18.853Z,40.40
2019-05-22T00:15:51.746Z,39.77
2019-05-22T00:18:22.725Z,41.77
2019-05-22T00:20:54.688Z,39.53
2019-05-22T00:23:27.148Z,39.63
2019-05-22T00:25:58.350Z,38.27
2019-05-22T00:28:31.631Z,32.73
2019-05-22T00:31:04.397Z,31.50
2019-05-22T00:33:37.198Z,32.30
2019-05-22T00:36:10.598Z,26.07
2019-05-22T00:38:41.776Z,20.03
2019-05-22T00:41:12.885Z,22.30
2019-05-22T00:43:45.060Z,20.40
2019-05-22T00:46:17.027Z,18.93
2019-05-22T00:48:48.418Z,18.57
2019-05-22T00:51:36.833Z,18.17
2019-05-22T00:54:12.594Z,19.20
2019-05-22T00:56:54.192Z,17.83
2019-05-22T00:59:43.070Z,20.10
2019-05-22T01:02:16.183Z,18.43
2019-05-22T01:04:48.718Z,21.00
2019-05-22T01:07:21.360Z,20.37
2019-05-22T01:10:01.605Z,21.73
2019-05-22T01:12:37.156Z,20.67
2019-05-22T01:15:09.144Z,21.23
2019-05-22T01:17:42.234Z,21.80
2019-05-22T01:20:15.787Z,20.77
2019-05-22T01:22:49.807Z,19.90
2019-05-22T01:25:24.990Z,20.43
2019-05-22T01:27:58.653Z,19.57
2019-05-22T01:30:40.480Z,19.97
2019-05-22T01:33:23.558Z,19.87
2019-05-22T01:36:03.795Z,18.70
2019-05-22T01:38:38.975Z,18.07
2019-05-22T01:41:19.208Z,17.80
2019-05-22T01:43:51.819Z,16.93
2019-05-22T01:46:22.890Z,16.47
2019-05-22T01:48:56.924Z,17.40
2019-05-22T01:51:28.220Z,16.30
2019-05-22T01:54:00.742Z,16.00
2019-05-22T01:56:34.353Z,15.60
2019-05-22T01:59:05.770Z,14.60
2019-05-22T02:01:38.235Z,12.47
2019-05-22T02:04:09.833Z,13.20
2019-05-22T02:06:41.984Z,12.80
2019-05-22T02:09:31.244Z,13.70
2019-05-22T02:12:27.774Z,14.60
2019-05-22T02:14:59.250Z,14.20
2019-05-22T02:17:35.952Z,13.00
2019-05-22T02:20:08.951Z,12.23
2019-05-22T02:22:41.054Z,11.83
2019-05-22T02:25:13.316Z,11.97
2019-05-22T02:27:44.932Z,10.97
2019-05-22T02:30:18.017Z,11.13
2019-05-22T02:32:49.330Z,10.63
2019-05-22T02:35:21.844Z,11.07
2019-05-22T02:37:52.849Z,11.93
2019-05-22T02:40:34.146Z,11.97
2019-05-22T02:43:07.218Z,12.17
2019-05-22T02:45:38.196Z,12.53
2019-05-22T02:48:11.812Z,13.50
2019-05-22T02:50:42.581Z,13.90
2019-05-22T02:53:14.978Z,14.10
2019-05-22T02:55:48.095Z,13.30
2019-05-22T02:58:21.656Z,12.90
2019-05-22T03:00:58.629Z,15.10
2019-05-22T03:03:31.071Z,13.27
2019-05-22T03:06:06.009Z,14.20
2019-05-22T03:09:00.050Z,14.43
2019-05-22T03:11:37.716Z,13.37
2019-05-22T03:14:09.653Z,13.60
2019-05-22T03:16:58.297Z,13.90
2019-05-22T03:19:42.397Z,13.80
2019-05-22T03:22:26.871Z,15.20
2019-05-22T03:25:02.441Z,14.50
2019-05-22T03:27:50.476Z,16.47
2019-05-22T03:30:37.021Z,27.13
2019-05-22T03:33:08.608Z,16.80
2019-05-22T03:35:46.214Z,18.13
2019-05-22T03:38:19.338Z,21.43
2019-05-22T03:40:52.768Z,18.33
2019-05-22T03:43:28.178Z,19.07
2019-05-22T03:46:02.956Z,20.70
2019-05-22T03:48:36.729Z,27.70
2019-05-22T03:51:12.557Z,18.13
2019-05-22T03:53:44.094Z,23.17
2019-05-22T03:56:18.096Z,17.53
2019-05-22T03:58:48.682Z,18.87
2019-05-22T04:01:22.186Z,19.67
2019-05-22T04:03:53.383Z,19.33
2019-05-22T04:06:25.500Z,19.43
2019-05-22T04:08:58.066Z,24.63
2019-05-22T04:11:32.494Z,18.47
2019-05-22T04:14:04.121Z,19.30
2019-05-22T04:16:35.955Z,20.33
2019-05-22T04:19:07.021Z,17.37
2019-05-22T04:21:38.307Z,18.83
2019-05-22T04:24:10.055Z,16.43
2019-05-22T04:26:41.652Z,16.93
2019-05-22T04:29:14.679Z,15.70
2019-05-22T04:31:52.214Z,16.80
2019-05-22T04:34:23.684Z,17.67
2019-05-22T04:36:55.724Z,19.10
2019-05-22T04:39:27.908Z,17.03
2019-05-22T04:41:59.042Z,18.33
2019-05-22T04:44:29.755Z,15.20
2019-05-22T04:47:01.861Z,16.20
2019-05-22T04:49:32.777Z,18.27
2019-05-22T04:52:04.945Z,21.27
2019-05-22T04:54:35.960Z,17.33
2019-05-22T04:57:07.947Z,19.30
2019-05-22T04:59:39.407Z,17.43
2019-05-22T05:02:10.858Z,15.13
2019-05-22T05:04:42.814Z,11.67
2019-05-22T05:07:13.480Z,12.87
2019-05-22T05:09:46.308Z,12.93
2019-05-22T05:12:17.465Z,13.23
2019-05-22T05:14:48.418Z,15.50
2019-05-22T05:17:21.440Z,18.33
2019-05-22T05:19:51.523Z,13.57
2019-05-22T05:22:27.915Z,12.63
2019-05-22T05:24:58.901Z,13.90
2019-05-22T05:27:30.281Z,11.80
2019-05-22T05:30:01.427Z,10.00
2019-05-22T05:32:32.689Z,10.50
2019-05-22T05:35:06.109Z,10.93
2019-05-22T05:37:37.005Z,12.77
2019-05-22T05:40:10.859Z,12.33
2019-05-22T05:42:41.773Z,13.13
2019-05-22T05:45:13.800Z,14.50
2019-05-22T05:47:45.597Z,15.43
2019-05-22T05:50:18.557Z,12.03
2019-05-22T05:52:49.816Z,13.83
2019-05-22T05:55:22.308Z,12.07
2019-05-22T05:57:56.930Z,12.43
2019-05-22T06:00:32.451Z,13.93
2019-05-22T06:03:22.994Z,14.73
2019-05-22T06:05:54.013Z,15.13
2019-05-22T06:08:26.446Z,14.63
2019-05-22T06:11:21.924Z,19.47
2019-05-22T06:13:52.777Z,13.00
2019-05-22T06:16:26.972Z,15.57
2019-05-22T06:18:57.910Z,15.77
2019-05-22T06:21:28.922Z,15.50
2019-05-22T06:24:04.055Z,15.30
2019-05-22T06:26:49.104Z,15.53
2019-05-22T06:29:22.530Z,14.57
2019-05-22T06:32:07.358Z,13.20
2019-05-22T06:34:38.478Z,14.50
2019-05-22T06:37:15.404Z,15.47
2019-05-22T06:39:46.872Z,15.00
2019-05-22T06:42:17.822Z,13.80
2019-05-22T06:44:48.516Z,14.73
2019-05-22T06:47:21.119Z,14.30
2019-05-22T06:49:53.788Z,17.83
2019-05-22T06:52:25.343Z,19.10
2019-05-22T06:54:56.807Z,15.37
2019-05-22T06:57:30.897Z,18.30
2019-05-22T07:00:14.589Z,15.90
2019-05-22T07:02:37.908Z,13.40
2019-05-22T07:05:10.192Z,13.10
2019-05-22T07:07:42.886Z,15.07
2019-05-22T07:10:14.820Z,19.93
2019-05-22T07:12:50.271Z,18.17
2019-05-22T07:15:26.025Z,15.63
2019-05-22T07:17:57.302Z,19.87
2019-05-22T07:20:31.067Z,12.13
2019-05-22T07:23:04.255Z,13.93
2019-05-22T07:25:36.649Z,10.37
2019-05-22T07:28:07.467Z,9.53
2019-05-22T07:30:39.123Z,10.77
2019-05-22T07:33:10.377Z,10.07
2019-05-22T07:36:04.818Z,9.10
2019-05-22T07:38:15.979Z,10.20
2019-05-22T07:40:50.363Z,11.60
2019-05-22T07:43:22.325Z,10.80
2019-05-22T07:45:57.270Z,9.13
2019-05-22T07:48:29.377Z,8.20
2019-05-22T07:51:01.347Z,9.93
2019-05-22T07:53:32.332Z,9.00
2019-05-22T07:56:07.878Z,8.20
2019-05-22T07:58:39.012Z,7.83
2019-05-22T08:01:10.050Z,9.53
2019-05-22T08:03:42.840Z,8.60
2019-05-22T08:06:14.286Z,8.33
2019-05-22T08:08:46.359Z,9.30
2019-05-22T08:11:17.600Z,7.07
2019-05-22T08:13:49.379Z,8.83
2019-05-22T08:16:20.402Z,7.07
2019-05-22T08:18:52.997Z,9.77
2019-05-22T08:21:24.437Z,8.90
2019-05-22T08:23:56.067Z,8.40
2019-05-22T08:26:29.977Z,10.20
2019-05-22T08:29:02.038Z,9.17
2019-05-22T08:31:34.081Z,10.33
2019-05-22T08:34:07.420Z,12.23
2019-05-22T08:36:40.073Z,12.77
2019-05-22T08:39:11.966Z,13.20
2019-05-22T08:41:44.410Z,15.40
2019-05-22T08:44:19.974Z,12.03
2019-05-22T08:46:50.919Z,14.07
2019-05-22T08:49:22.225Z,11.97
2019-05-22T08:51:54.952Z,9.53
2019-05-22T08:54:26.800Z,13.10
2019-05-22T08:57:01.918Z,13.70
2019-05-22T08:59:32.991Z,12.00
2019-05-22T09:02:05.190Z,13.30
2019-05-22T09:04:35.691Z,12.10
2019-05-22T09:07:06.696Z,14.30
2019-05-22T09:09:46.672Z,10.93
2019-05-22T09:12:17.494Z,9.60
2019-05-22T09:14:50.218Z,11.07
2019-05-22T09:17:21.640Z,11.87
2019-05-22T09:19:55.281Z,11.13
2019-05-22T09:22:39.371Z,9.37
2019-05-22T09:25:00.879Z,15.77
2019-05-22T09:27:31.870Z,11.03
2019-05-22T09:30:02.706Z,11.10
2019-05-22T09:32:35.151Z,10.40
2019-05-22T09:35:07.270Z,9.53
2019-05-22T09:37:38.695Z,10.23
2019-05-22T09:40:09.243Z,8.83
2019-05-22T09:42:40.467Z,12.50
2019-05-22T09:45:12.229Z,10.03
2019-05-22T09:47:42.733Z,11.67
2019-05-22T09:50:15.231Z,9.93
2019-05-22T09:52:56.783Z,11.60
2019-05-22T09:55:21.015Z,11.03
2019-05-22T09:57:53.667Z,8.63
2019-05-22T10:00:24.532Z,10.87
2019-05-22T10:02:55.453Z,9.57
2019-05-22T10:05:26.511Z,11.00
2019-05-22T10:08:01.563Z,7.83
2019-05-22T10:10:33.390Z,9.03
2019-05-22T10:13:05.557Z,8.27
2019-05-22T10:15:36.816Z,10.73
2019-05-22T10:18:08.335Z,11.70
2019-05-22T10:20:39.710Z,10.20
2019-05-22T10:23:16.015Z,8.20
2019-05-22T10:25:48.814Z,8.33
2019-05-22T10:28:20.015Z,8.57
2019-05-22T10:30:51.740Z,6.87
2019-05-22T10:33:23.527Z,8.10
2019-05-22T10:35:59.165Z,7.87
2019-05-22T10:38:30.109Z,7.50
2019-05-22T10:41:00.931Z,8.53
2019-05-22T10:43:31.873Z,8.83
2019-05-22T10:46:03.192Z,9.77
2019-05-22T10:48:40.194Z,8.77
2019-05-22T10:51:11.658Z,9.13
2019-05-22T10:53:42.613Z,8.87
2019-05-22T10:56:13.452Z,8.50
2019-05-22T10:58:44.065Z,10.60
2019-05-22T11:01:15.503Z,9.53
2019-05-22T11:03:46.935Z,10.27
2019-05-22T11:06:19.133Z,9.23
2019-05-22T11:08:49.962Z,12.70
2019-05-22T11:11:21.266Z,11.53
2019-05-22T11:14:01.501Z,9.77
2019-05-22T11:16:26.370Z,10.83
2019-05-22T11:18:58.623Z,11.10
2019-05-22T11:21:29.687Z,11.83
2019-05-22T11:24:00.777Z,12.70
2019-05-22T11:26:33.314Z,13.93
2019-05-22T11:29:04.904Z,12.70
2019-05-22T11:31:36.305Z,14.10
2019-05-22T11:34:07.852Z,14.70
2019-05-22T11:36:39.605Z,15.30
2019-05-22T11:39:13.563Z,15.33
2019-05-22T11:41:44.419Z,17.60
2019-05-22T11:44:15.378Z,18.30
2019-05-22T11:46:47.761Z,16.73
2019-05-22T11:49:18.601Z,19.37
2019-05-22T11:51:51.695Z,18.57
2019-05-22T11:54:22.221Z,18.73
2019-05-22T11:56:52.691Z,16.53
2019-05-22T11:59:24.939Z,19.77
2019-05-22T12:01:55.957Z,19.57
2019-05-22T12:04:44.388Z,20.60
2019-05-22T12:07:02.753Z,19.57
2019-05-22T12:09:36.545Z,20.90
2019-05-22T12:12:08.555Z,19.83
2019-05-22T12:14:39.491Z,22.77
2019-05-22T12:17:11.850Z,27.70
2019-05-22T12:19:43.204Z,29.97
2019-05-22T12:22:14.187Z,23.37
2019-05-22T12:24:45.502Z,21.43
2019-05-22T12:27:16.750Z,25.50
2019-05-22T12:29:48.386Z,24.97
2019-05-22T12:32:21.779Z,25.87
2019-05-22T12:34:56.117Z,23.10
2019-05-22T12:37:29.417Z,24.00
2019-05-22T12:40:02.205Z,24.33
2019-05-22T12:42:36.801Z,26.47
2019-05-22T12:45:10.081Z,26.57
2019-05-22T12:47:43.563Z,22.13
2019-05-22T12:50:16.917Z,21.53
2019-05-22T12:52:50.159Z,25.80
2019-05-22T12:55:21.255Z,23.47
2019-05-22T12:57:52.543Z,21.13
2019-05-22T13:00:29.917Z,23.13
2019-05-22T13:03:03.025Z,24.13
2019-05-22T13:05:37.402Z,23.83
2019-05-22T13:08:09.354Z,22.93
2019-05-22T13:10:40.857Z,21.80
2019-05-22T13:13:13.089Z,24.17
2019-05-22T13:15:45.720Z,23.80
2019-05-22T13:18:21.392Z,21.23
2019-05-22T13:20:53.958Z,26.70
2019-05-22T13:23:29.429Z,26.23
2019-05-22T13:26:03.224Z,24.37
2019-05-22T13:28:37.958Z,23.60
2019-05-22T13:31:13.076Z,24.77
2019-05-22T13:33:46.958Z,28.77
2019-05-22T13:36:20.092Z,24.73
2019-05-22T13:38:51.884Z,27.00
2019-05-22T13:41:23.303Z,25.07
2019-05-22T13:43:55.037Z,24.77
2019-05-22T13:46:26.463Z,29.53
2019-05-22T13:48:57.426Z,28.73
2019-05-22T13:51:28.463Z,27.03
2019-05-22T13:53:59.982Z,31.37
2019-05-22T13:56:31.475Z,29.00
2019-05-22T13:59:02.523Z,26.83
2019-05-22T14:01:33.354Z,29.00
2019-05-22T14:04:04.613Z,31.17
2019-05-22T14:06:35.933Z,27.67
2019-05-22T14:09:10.126Z,29.87
2019-05-22T14:11:41.556Z,25.23
2019-05-22T14:14:13.270Z,28.00
2019-05-22T14:16:49.083Z,24.40
2019-05-22T14:19:17.628Z,25.90
2019-05-22T14:21:51.801Z,27.17
2019-05-22T14:24:21.369Z,27.87
2019-05-22T14:26:52.388Z,24.60
2019-05-22T14:29:23.960Z,26.00
2019-05-22T14:31:55.148Z,24.90
2019-05-22T14:34:26.920Z,28.83
2019-05-22T14:36:57.874Z,24.50
2019-05-22T14:39:30.053Z,25.73
2019-05-22T14:42:01.191Z,26.13
2019-05-22T14:44:34.131Z,27.37
2019-05-22T14:47:14.089Z,25.47
2019-05-22T14:49:37.571Z,26.10
2019-05-22T14:52:08.623Z,25.23
2019-05-22T14:54:39.495Z,22.87
2019-05-22T14:57:11.367Z,23.10
2019-05-22T14:59:41.979Z,25.17
2019-05-22T15:02:12.895Z,22.00
2019-05-22T15:04:44.060Z,21.73
2019-05-22T15:07:14.971Z,20.70
2019-05-22T15:09:45.843Z,25.33
2019-05-22T15:12:16.896Z,22.20
2019-05-22T15:14:47.783Z,20.90
2019-05-22T15:17:31.892Z,21.90
2019-05-22T15:19:51.847Z,20.07
2019-05-22T15:22:22.763Z,22.63
2019-05-22T15:24:53.930Z,21.33
2019-05-22T15:27:25.552Z,19.10
2019-05-22T15:29:56.727Z,20.47
2019-05-22T15:32:27.639Z,18.00
2019-05-22T15:34:58.805Z,21.13
2019-05-22T15:37:30.265Z,17.87
2019-05-22T15:40:02.836Z,20.83
2019-05-22T15:42:40.243Z,20.00
2019-05-22T15:45:29.646Z,20.23
2019-05-22T15:48:04.875Z,22.23
2019-05-22T15:50:37.718Z,19.07
2019-05-22T15:53:15.045Z,21.30
2019-05-22T15:55:45.612Z,20.37
2019-05-22T15:58:18.525Z,19.93
2019-05-22T16:00:50.910Z,18.30
2019-05-22T16:03:25.421Z,19.13
2019-05-22T16:05:56.815Z,17.93
2019-05-22T16:08:29.344Z,20.13
2019-05-22T16:11:02.203Z,16.80
2019-05-22T16:13:35.088Z,20.53
2019-05-22T16:16:06.758Z,18.50
2019-05-22T16:18:39.173Z,16.13
2019-05-22T16:21:11.653Z,19.73
2019-05-22T16:23:43.773Z,19.47
2019-05-22T16:26:15.971Z,18.07
2019-05-22T16:28:48.313Z,15.70
2019-05-22T16:31:19.963Z,15.40
2019-05-22T16:33:53.528Z,15.77
2019-05-22T16:36:25.373Z,14.23
2019-05-22T16:38:58.152Z,18.87
2019-05-22T16:41:29.877Z,16.33
2019-05-22T16:44:01.220Z,14.90
2019-05-22T16:46:32.877Z,17.83
2019-05-22T16:49:04.381Z,18.57
2019-05-22T16:51:36.205Z,14.90
2019-05-22T16:54:08.709Z,15.13
2019-05-22T16:56:41.035Z,14.10
2019-05-22T16:59:13.640Z,13.80
2019-05-22T17:01:58.645Z,14.47
2019-05-22T17:04:21.414Z,13.10
2019-05-22T17:06:52.726Z,13.83
2019-05-22T17:09:24.055Z,13.57
2019-05-22T17:11:55.796Z,15.20
2019-05-22T17:14:28.279Z,13.10
2019-05-22T17:16:58.756Z,13.93
2019-05-22T17:19:29.876Z,10.40
2019-05-22T17:22:01.197Z,12.93
2019-05-22T17:24:34.162Z,11.90
2019-05-22T17:27:06.448Z,9.57
2019-05-22T17:29:37.311Z,10.03
2019-05-22T17:32:08.336Z,10.93
2019-05-22T17:34:40.103Z,12.17
2019-05-22T17:37:14.553Z,10.63
2019-05-22T17:39:47.121Z,12.33
2019-05-22T17:42:20.343Z,13.70
2019-05-22T17:44:53.192Z,14.47
2019-05-22T17:47:26.420Z,15.73
2019-05-22T17:49:58.317Z,12.10
2019-05-22T17:52:29.647Z,14.63
2019-05-22T17:55:00.620Z,11.97
2019-05-22T17:57:32.173Z,12.07
2019-05-22T18:00:05.165Z,10.53
2019-05-22T18:02:36.937Z,9.30
2019-05-22T18:05:10.107Z,12.53
2019-05-22T18:07:42.050Z,10.87
2019-05-22T18:10:13.811Z,12.63
2019-05-22T18:12:44.640Z,12.97
2019-05-22T18:15:16.225Z,10.77
2019-05-22T18:17:47.137Z,10.93
2019-05-22T18:20:19.120Z,11.27
2019-05-22T18:22:50.143Z,10.93
2019-05-22T18:25:21.476Z,14.60
2019-05-22T18:27:52.669Z,8.57
2019-05-22T18:30:24.835Z,11.53
2019-05-22T18:32:55.738Z,11.33
2019-05-22T18:35:27.087Z,8.50
2019-05-22T18:37:59.348Z,10.00
2019-05-22T18:40:30.605Z,10.50
2019-05-22T18:43:01.530Z,11.00
2019-05-22T18:45:34.432Z,11.43
2019-05-22T18:48:07.115Z,10.13
2019-05-22T18:50:38.431Z,11.63
2019-05-22T18:53:09.680Z,9.47
2019-05-22T18:55:40.457Z,9.97
2019-05-22T18:58:11.588Z,11.60
2019-05-22T19:00:42.691Z,10.90
2019-05-22T19:03:14.091Z,9.60
2019-05-22T19:05:45.105Z,9.03
2019-05-22T19:08:15.970Z,8.37
2019-05-22T19:10:47.241Z,13.00
2019-05-22T19:13:18.141Z,10.00
2019-05-22T19:15:50.612Z,9.30
2019-05-22T19:18:21.946Z,7.67
2019-05-22T19:20:53.316Z,7.40
2019-05-22T19:23:24.799Z,8.50
2019-05-22T19:25:57.935Z,6.70
2019-05-22T19:28:42.983Z,8.87
2019-05-22T19:31:01.846Z,6.93
2019-05-22T19:33:32.370Z,7.17
2019-05-22T19:36:04.183Z,9.07
2019-05-22T19:38:35.299Z,6.90
2019-05-22T19:41:06.671Z,8.53
2019-05-22T19:43:37.675Z,7.23
2019-05-22T19:46:08.903Z,9.70
2019-05-22T19:48:40.216Z,9.27
2019-05-22T19:51:12.883Z,8.87
2019-05-22T19:53:43.657Z,13.40
2019-05-22T19:56:15.534Z,9.80
2019-05-22T19:58:46.866Z,6.17
2019-05-22T20:01:18.590Z,8.03
2019-05-22T20:03:51.798Z,7.40
2019-05-22T20:06:23.437Z,5.90
2019-05-22T20:08:54.972Z,7.57
2019-05-22T20:11:26.938Z,6.30
2019-05-22T20:13:58.648Z,7.70
2019-05-22T20:16:29.648Z,7.37
2019-05-22T20:19:00.892Z,9.57
2019-05-22T20:21:32.842Z,8.30
2019-05-22T20:24:04.383Z,7.40
2019-05-22T20:26:35.376Z,6.43
2019-05-22T20:29:07.643Z,7.47
2019-05-22T20:31:40.123Z,7.43
2019-05-22T20:34:11.184Z,6.30
2019-05-22T20:36:42.634Z,8.03
2019-05-22T20:39:15.171Z,8.73
2019-05-22T20:41:46.662Z,6.33
2019-05-22T20:44:20.004Z,7.03
2019-05-22T20:46:51.486Z,8.90
2019-05-22T20:49:23.867Z,7.87
2019-05-22T20:51:55.195Z,7.00
2019-05-22T20:54:29.034Z,6.43
2019-05-22T20:57:01.035Z,7.63
2019-05-22T20:59:32.442Z,9.73
2019-05-22T21:02:04.689Z,6.77
2019-05-22T21:04:37.136Z,5.93
2019-05-22T21:07:09.829Z,6.57
2019-05-22T21:09:41.024Z,7.63
2019-05-22T21:12:13.175Z,6.70
2019-05-22T21:14:43.774Z,6.67
2019-05-22T21:17:16.449Z,6.03
2019-05-22T21:19:49.234Z,7.00
2019-05-22T21:22:21.860Z,6.97
2019-05-22T21:24:55.447Z,7.77
2019-05-22T21:27:26.898Z,9.53
2019-05-22T21:29:58.563Z,7.90
2019-05-22T21:32:30.548Z,8.10
2019-05-22T21:35:01.487Z,9.07
2019-05-22T21:37:32.477Z,8.53
2019-05-22T21:40:05.303Z,8.03
2019-05-22T21:42:38.594Z,8.00
2019-05-22T21:45:11.455Z,6.47
2019-05-22T21:47:42.397Z,5.83
2019-05-22T21:50:13.987Z,6.53
2019-05-22T21:52:45.201Z,13.47
2019-05-22T21:55:27.241Z,8.63
2019-05-22T21:57:54.723Z,9.17
2019-05-22T22:00:42.589Z,10.57
2019-05-22T22:03:19.166Z,8.97
2019-05-22T22:05:50.676Z,9.93
2019-05-22T22:08:21.638Z,10.80
2019-05-22T22:10:54.462Z,12.90
2019-05-22T22:13:26.104Z,15.60
2019-05-22T22:16:00.025Z,16.80
2019-05-22T22:18:33.233Z,12.40
2019-05-22T22:21:05.030Z,13.17
2019-05-22T22:23:36.466Z,12.10
2019-05-22T22:26:24.055Z,11.93
2019-05-22T22:28:42.228Z,11.47
2019-05-22T22:31:15.347Z,11.70
2019-05-22T22:33:52.433Z,14.13
2019-05-22T22:36:24.072Z,12.63
2019-05-22T22:38:56.027Z,13.77
2019-05-22T22:41:27.170Z,16.73
2019-05-22T22:43:59.016Z,13.70
2019-05-22T22:46:39.580Z,13.23
2019-05-22T22:49:13.791Z,14.63
2019-05-22T22:51:46.690Z,10.77
2019-05-22T22:54:20.532Z,11.73
2019-05-22T22:56:51.638Z,13.27
2019-05-22T22:59:22.810Z,9.83
2019-05-22T23:01:56.701Z,10.90
2019-05-22T23:04:30.014Z,7.60
2019-05-22T23:07:03.336Z,7.77
2019-05-22T23:09:37.526Z,10.03
2019-05-22T23:12:09.862Z,11.57
2019-05-22T23:14:44.683Z,9.63
2019-05-22T23:17:17.322Z,7.70
2019-05-22T23:19:47.601Z,6.53
2019-05-22T23:22:18.101Z,6.53
2019-05-22T23:24:49.985Z,8.53
2019-05-22T23:27:21.326Z,7.13
2019-05-22T23:29:52.507Z,8.73
2019-05-22T23:32:24.579Z,9.07
2019-05-22T23:34:57.214Z,8.83
2019-05-22T23:37:28.994Z,9.13
2019-05-22T23:40:00.688Z,8.47
2019-05-22T23:42:35.264Z,10.13
2019-05-22T23:45:10.576Z,7.50
2019-05-22T23:47:59.289Z,10.10
2019-05-22T23:50:33.902Z,9.37
2019-05-22T23:53:05.842Z,7.43
2019-05-22T23:55:36.950Z,6.70
2019-05-22T23:58:10.337Z,7.10
